sensor_id;sensor_type;location;lat;lon;timestamp;P1;durP1;ratioP1;P2;durP2;ratioP2
35877;SDS011;21982;49.804;24.072;2023-12-07T00:01:32;23.08;;;10.73;;
35877;SDS011;21982;49.804;24.072;2023-12-07T00:03:59;21.48;;;11.05;;
35877;SDS011;21982;49.804;24.072;2023-12-07T00:06:25;21.15;;;12.27;;
35877;SDS011;21982;49.804;24.072;2023-12-07T00:08:50;23.15;;;11.90;;
35877;SDS011;21982;49.804;24.072;2023-12-07T00:11:16;23.83;;;11.63;;
35877;SDS011;21982;49.804;24.072;2023-12-07T00:13:41;23.83;;;11.63;;
35877;SDS011;21982;49.804;24.072;2023-12-07T00:16:06;23.23;;;12.77;;
35877;SDS011;21982;49.804;24.072;2023-12-07T00:18:32;21.48;;;11.02;;
35877;SDS011;21982;49.804;24.072;2023-12-07T00:20:58;23.92;;;11.93;;
35877;SDS011;21982;49.804;24.072;2023-12-07T00:23:23;23.15;;;11.85;;
35877;SDS011;21982;49.804;24.072;2023-12-07T00:25:49;25.40;;;13.73;;
35877;SDS011;21982;49.804;24.072;2023-12-07T00:28:14;23.75;;;12.02;;
35877;SDS011;21982;49.804;24.072;2023-12-07T00:30:39;21.95;;;10.60;;
35877;SDS011;21982;49.804;24.072;2023-12-07T00:33:07;23.50;;;11.77;;
35877;SDS011;21982;49.804;24.072;2023-12-07T00:35:32;20.38;;;11.73;;
35877;SDS011;21982;49.804;24.072;2023-12-07T00:37:58;20.67;;;12.52;;
35877;SDS011;21982;49.804;24.072;2023-12-07T00:40:23;23.17;;;11.00;;
35877;SDS011;21982;49.804;24.072;2023-12-07T00:42:49;22.55;;;11.75;;
35877;SDS011;21982;49.804;24.072;2023-12-07T00:45:14;21.52;;;10.82;;
35877;SDS011;21982;49.804;24.072;2023-12-07T00:47:40;27.15;;;12.43;;
35877;SDS011;21982;49.804;24.072;2023-12-07T00:50:06;25.02;;;10.68;;
35877;SDS011;21982;49.804;24.072;2023-12-07T00:52:32;20.83;;;11.27;;
35877;SDS011;21982;49.804;24.072;2023-12-07T00:54:57;22.67;;;11.48;;
35877;SDS011;21982;49.804;24.072;2023-12-07T00:57:22;23.17;;;11.40;;
35877;SDS011;21982;49.804;24.072;2023-12-07T00:59:48;21.67;;;11.57;;
35877;SDS011;21982;49.804;24.072;2023-12-07T01:02:13;25.70;;;11.82;;
35877;SDS011;21982;49.804;24.072;2023-12-07T01:04:39;22.45;;;11.50;;
35877;SDS011;21982;49.804;24.072;2023-12-07T01:07:04;19.58;;;10.93;;
35877;SDS011;21982;49.804;24.072;2023-12-07T01:09:30;26.83;;;12.30;;
35877;SDS011;21982;49.804;24.072;2023-12-07T01:11:55;22.50;;;11.65;;
35877;SDS011;21982;49.804;24.072;2023-12-07T01:14:23;20.63;;;11.38;;
35877;SDS011;21982;49.804;24.072;2023-12-07T01:16:48;22.88;;;11.93;;
35877;SDS011;21982;49.804;24.072;2023-12-07T01:19:14;23.90;;;11.65;;
35877;SDS011;21982;49.804;24.072;2023-12-07T01:21:42;20.23;;;11.75;;
35877;SDS011;21982;49.804;24.072;2023-12-07T01:24:08;20.10;;;11.48;;
35877;SDS011;21982;49.804;24.072;2023-12-07T01:26:34;17.70;;;10.60;;
35877;SDS011;21982;49.804;24.072;2023-12-07T01:28:59;22.25;;;10.27;;
35877;SDS011;21982;49.804;24.072;2023-12-07T01:31:25;20.33;;;11.15;;
35877;SDS011;21982;49.804;24.072;2023-12-07T01:33:50;21.77;;;10.95;;
35877;SDS011;21982;49.804;24.072;2023-12-07T01:36:16;24.58;;;12.73;;
35877;SDS011;21982;49.804;24.072;2023-12-07T01:38:41;20.50;;;11.30;;
35877;SDS011;21982;49.804;24.072;2023-12-07T01:41:08;18.27;;;10.70;;
35877;SDS011;21982;49.804;24.072;2023-12-07T01:43:34;19.35;;;9.57;;
35877;SDS011;21982;49.804;24.072;2023-12-07T01:45:59;19.52;;;10.57;;
35877;SDS011;21982;49.804;24.072;2023-12-07T01:48:25;22.80;;;10.80;;
35877;SDS011;21982;49.804;24.072;2023-12-07T01:50:52;21.90;;;11.60;;
35877;SDS011;21982;49.804;24.072;2023-12-07T01:53:19;20.58;;;11.02;;
35877;SDS011;21982;49.804;24.072;2023-12-07T01:55:46;20.27;;;11.15;;
35877;SDS011;21982;49.804;24.072;2023-12-07T01:58:12;22.23;;;12.63;;
35877;SDS011;21982;49.804;24.072;2023-12-07T03:32:20;24.27;;;13.73;;
35877;SDS011;21982;49.804;24.072;2023-12-07T03:34:46;22.33;;;12.07;;
35877;SDS011;21982;49.804;24.072;2023-12-07T03:37:11;25.00;;;13.43;;
35877;SDS011;21982;49.804;24.072;2023-12-07T03:39:36;24.83;;;13.32;;
35877;SDS011;21982;49.804;24.072;2023-12-07T03:42:02;25.83;;;14.50;;
35877;SDS011;21982;49.804;24.072;2023-12-07T03:44:28;25.35;;;13.48;;
35877;SDS011;21982;49.804;24.072;2023-12-07T03:46:54;29.08;;;14.82;;
35877;SDS011;21982;49.804;24.072;2023-12-07T03:49:20;26.33;;;12.93;;
35877;SDS011;21982;49.804;24.072;2023-12-07T03:51:45;26.80;;;14.30;;
35877;SDS011;21982;49.804;24.072;2023-12-07T03:54:11;26.67;;;14.07;;
35877;SDS011;21982;49.804;24.072;2023-12-07T03:56:36;26.75;;;14.40;;
35877;SDS011;21982;49.804;24.072;2023-12-07T03:59:02;27.35;;;13.98;;
35877;SDS011;21982;49.804;24.072;2023-12-07T04:01:28;27.92;;;14.10;;
35877;SDS011;21982;49.804;24.072;2023-12-07T04:03:54;27.37;;;15.37;;
35877;SDS011;21982;49.804;24.072;2023-12-07T04:06:21;26.85;;;14.23;;
35877;SDS011;21982;49.804;24.072;2023-12-07T04:08:47;22.45;;;13.15;;
35877;SDS011;21982;49.804;24.072;2023-12-07T04:11:14;29.37;;;14.27;;
35877;SDS011;21982;49.804;24.072;2023-12-07T04:13:40;26.77;;;13.80;;
35877;SDS011;21982;49.804;24.072;2023-12-07T04:16:06;26.85;;;13.82;;
35877;SDS011;21982;49.804;24.072;2023-12-07T04:18:32;27.90;;;14.40;;
35877;SDS011;21982;49.804;24.072;2023-12-07T04:20:58;30.02;;;15.10;;
35877;SDS011;21982;49.804;24.072;2023-12-07T04:23:23;31.75;;;15.27;;
35877;SDS011;21982;49.804;24.072;2023-12-07T04:25:50;33.00;;;14.43;;
35877;SDS011;21982;49.804;24.072;2023-12-07T04:28:15;33.97;;;15.93;;
35877;SDS011;21982;49.804;24.072;2023-12-07T04:30:41;34.80;;;16.50;;
35877;SDS011;21982;49.804;24.072;2023-12-07T04:33:06;34.55;;;17.13;;
35877;SDS011;21982;49.804;24.072;2023-12-07T04:35:32;30.70;;;15.50;;
35877;SDS011;21982;49.804;24.072;2023-12-07T04:37:57;28.90;;;16.15;;
35877;SDS011;21982;49.804;24.072;2023-12-07T04:40:24;31.00;;;16.05;;
35877;SDS011;21982;49.804;24.072;2023-12-07T04:42:51;31.10;;;16.60;;
35877;SDS011;21982;49.804;24.072;2023-12-07T04:45:16;32.38;;;15.68;;
35877;SDS011;21982;49.804;24.072;2023-12-07T04:47:43;39.40;;;18.23;;
35877;SDS011;21982;49.804;24.072;2023-12-07T04:50:09;32.10;;;17.85;;
35877;SDS011;21982;49.804;24.072;2023-12-07T04:52:35;36.07;;;18.60;;
35877;SDS011;21982;49.804;24.072;2023-12-07T04:55:01;36.33;;;18.27;;
35877;SDS011;21982;49.804;24.072;2023-12-07T04:57:26;37.47;;;18.42;;
35877;SDS011;21982;49.804;24.072;2023-12-07T04:59:53;35.75;;;18.38;;
35877;SDS011;21982;49.804;24.072;2023-12-07T05:02:20;38.58;;;19.55;;
35877;SDS011;21982;49.804;24.072;2023-12-07T05:04:46;35.13;;;16.27;;
35877;SDS011;21982;49.804;24.072;2023-12-07T05:07:11;35.17;;;17.90;;
35877;SDS011;21982;49.804;24.072;2023-12-07T05:09:38;32.63;;;18.40;;
35877;SDS011;21982;49.804;24.072;2023-12-07T05:12:04;38.22;;;19.60;;
35877;SDS011;21982;49.804;24.072;2023-12-07T05:14:30;42.05;;;19.95;;
35877;SDS011;21982;49.804;24.072;2023-12-07T05:16:58;42.00;;;18.17;;
35877;SDS011;21982;49.804;24.072;2023-12-07T05:19:24;38.25;;;20.52;;
35877;SDS011;21982;49.804;24.072;2023-12-07T05:21:50;39.35;;;20.30;;
35877;SDS011;21982;49.804;24.072;2023-12-07T05:24:16;42.70;;;19.98;;
35877;SDS011;21982;49.804;24.072;2023-12-07T05:26:42;38.00;;;19.48;;
35877;SDS011;21982;49.804;24.072;2023-12-07T05:29:08;35.20;;;18.92;;
35877;SDS011;21982;49.804;24.072;2023-12-07T05:31:35;40.53;;;18.85;;
35877;SDS011;21982;49.804;24.072;2023-12-07T05:34:01;43.47;;;21.00;;
35877;SDS011;21982;49.804;24.072;2023-12-07T05:36:27;35.15;;;17.73;;
35877;SDS011;21982;49.804;24.072;2023-12-07T05:38:52;45.72;;;21.88;;
35877;SDS011;21982;49.804;24.072;2023-12-07T05:41:18;35.50;;;18.52;;
35877;SDS011;21982;49.804;24.072;2023-12-07T05:43:45;37.53;;;20.10;;
35877;SDS011;21982;49.804;24.072;2023-12-07T05:46:10;45.63;;;20.33;;
35877;SDS011;21982;49.804;24.072;2023-12-07T05:48:36;41.50;;;19.67;;
35877;SDS011;21982;49.804;24.072;2023-12-07T05:51:02;41.70;;;20.77;;
35877;SDS011;21982;49.804;24.072;2023-12-07T05:53:28;42.97;;;22.03;;
35877;SDS011;21982;49.804;24.072;2023-12-07T05:55:56;39.73;;;19.73;;
35877;SDS011;21982;49.804;24.072;2023-12-07T05:58:22;42.65;;;21.25;;
35877;SDS011;21982;49.804;24.072;2023-12-07T06:00:47;39.05;;;21.05;;
35877;SDS011;21982;49.804;24.072;2023-12-07T06:03:13;53.20;;;24.27;;
35877;SDS011;21982;49.804;24.072;2023-12-07T06:05:38;57.95;;;25.13;;
35877;SDS011;21982;49.804;24.072;2023-12-07T06:08:05;38.03;;;19.90;;
35877;SDS011;21982;49.804;24.072;2023-12-07T06:10:30;43.05;;;22.30;;
35877;SDS011;21982;49.804;24.072;2023-12-07T06:12:56;45.40;;;20.48;;
35877;SDS011;21982;49.804;24.072;2023-12-07T06:15:23;45.23;;;23.13;;
35877;SDS011;21982;49.804;24.072;2023-12-07T06:17:49;39.20;;;20.48;;
35877;SDS011;21982;49.804;24.072;2023-12-07T06:20:14;49.27;;;22.20;;
35877;SDS011;21982;49.804;24.072;2023-12-07T06:22:40;40.30;;;20.60;;
35877;SDS011;21982;49.804;24.072;2023-12-07T06:25:06;44.43;;;20.77;;
35877;SDS011;21982;49.804;24.072;2023-12-07T06:27:33;42.87;;;22.27;;
35877;SDS011;21982;49.804;24.072;2023-12-07T06:29:59;43.27;;;21.53;;
35877;SDS011;21982;49.804;24.072;2023-12-07T06:32:25;40.40;;;18.80;;
35877;SDS011;21982;49.804;24.072;2023-12-07T06:34:51;38.40;;;19.97;;
35877;SDS011;21982;49.804;24.072;2023-12-07T06:37:17;47.67;;;21.77;;
35877;SDS011;21982;49.804;24.072;2023-12-07T06:39:42;41.10;;;20.20;;
35877;SDS011;21982;49.804;24.072;2023-12-07T06:42:08;46.63;;;22.10;;
35877;SDS011;21982;49.804;24.072;2023-12-07T06:44:33;43.97;;;23.17;;
35877;SDS011;21982;49.804;24.072;2023-12-07T06:46:59;41.80;;;21.80;;
35877;SDS011;21982;49.804;24.072;2023-12-07T06:49:28;43.87;;;21.97;;
35877;SDS011;21982;49.804;24.072;2023-12-07T06:51:56;38.37;;;20.67;;
35877;SDS011;21982;49.804;24.072;2023-12-07T06:54:22;50.92;;;23.52;;
35877;SDS011;21982;49.804;24.072;2023-12-07T06:56:47;39.07;;;20.43;;
35877;SDS011;21982;49.804;24.072;2023-12-07T06:59:13;39.83;;;20.13;;
35877;SDS011;21982;49.804;24.072;2023-12-07T07:01:38;44.78;;;22.88;;
35877;SDS011;21982;49.804;24.072;2023-12-07T07:04:04;41.13;;;19.97;;
35877;SDS011;21982;49.804;24.072;2023-12-07T07:06:30;40.83;;;21.13;;
35877;SDS011;21982;49.804;24.072;2023-12-07T07:08:55;45.27;;;22.33;;
35877;SDS011;21982;49.804;24.072;2023-12-07T07:11:21;37.30;;;18.63;;
35877;SDS011;21982;49.804;24.072;2023-12-07T07:13:46;40.20;;;20.00;;
35877;SDS011;21982;49.804;24.072;2023-12-07T07:16:12;42.80;;;21.10;;
35877;SDS011;21982;49.804;24.072;2023-12-07T07:18:38;48.00;;;21.58;;
35877;SDS011;21982;49.804;24.072;2023-12-07T07:21:03;41.67;;;19.17;;
35877;SDS011;21982;49.804;24.072;2023-12-07T07:23:29;37.30;;;19.50;;
35877;SDS011;21982;49.804;24.072;2023-12-07T07:25:55;43.90;;;21.43;;
35877;SDS011;21982;49.804;24.072;2023-12-07T07:28:20;44.90;;;20.73;;
35877;SDS011;21982;49.804;24.072;2023-12-07T07:30:46;41.60;;;20.87;;
35877;SDS011;21982;49.804;24.072;2023-12-07T07:33:11;36.67;;;19.77;;
35877;SDS011;21982;49.804;24.072;2023-12-07T07:35:37;41.17;;;21.47;;
35877;SDS011;21982;49.804;24.072;2023-12-07T07:38:02;44.77;;;20.10;;
35877;SDS011;21982;49.804;24.072;2023-12-07T07:40:28;33.90;;;18.48;;
35877;SDS011;21982;49.804;24.072;2023-12-07T07:42:53;39.13;;;19.52;;
35877;SDS011;21982;49.804;24.072;2023-12-07T07:45:19;40.00;;;19.33;;
35877;SDS011;21982;49.804;24.072;2023-12-07T07:47:45;36.65;;;19.70;;
35877;SDS011;21982;49.804;24.072;2023-12-07T07:50:10;38.03;;;19.57;;
35877;SDS011;21982;49.804;24.072;2023-12-07T07:52:36;42.57;;;20.40;;
35877;SDS011;21982;49.804;24.072;2023-12-07T07:55:03;43.27;;;20.30;;
35877;SDS011;21982;49.804;24.072;2023-12-07T07:57:29;39.70;;;20.40;;
35877;SDS011;21982;49.804;24.072;2023-12-07T07:59:56;41.30;;;21.27;;
35877;SDS011;21982;49.804;24.072;2023-12-07T08:02:22;42.92;;;18.92;;
35877;SDS011;21982;49.804;24.072;2023-12-07T08:04:47;46.70;;;25.33;;
35877;SDS011;21982;49.804;24.072;2023-12-07T08:07:13;41.13;;;20.10;;
35877;SDS011;21982;49.804;24.072;2023-12-07T08:09:38;38.33;;;19.05;;
35877;SDS011;21982;49.804;24.072;2023-12-07T08:12:04;40.17;;;19.23;;
35877;SDS011;21982;49.804;24.072;2023-12-07T08:14:31;35.77;;;17.97;;
35877;SDS011;21982;49.804;24.072;2023-12-07T08:16:56;37.77;;;18.17;;
35877;SDS011;21982;49.804;24.072;2023-12-07T08:19:22;42.00;;;19.60;;
35877;SDS011;21982;49.804;24.072;2023-12-07T08:21:47;35.87;;;19.43;;
35877;SDS011;21982;49.804;24.072;2023-12-07T08:24:13;33.60;;;17.17;;
35877;SDS011;21982;49.804;24.072;2023-12-07T08:26:38;36.67;;;19.15;;
35877;SDS011;21982;49.804;24.072;2023-12-07T08:29:04;32.43;;;16.33;;
35877;SDS011;21982;49.804;24.072;2023-12-07T08:31:31;38.90;;;18.30;;
35877;SDS011;21982;49.804;24.072;2023-12-07T08:33:56;38.23;;;18.90;;
35877;SDS011;21982;49.804;24.072;2023-12-07T08:36:22;36.20;;;17.57;;
35877;SDS011;21982;49.804;24.072;2023-12-07T08:38:48;35.30;;;17.67;;
35877;SDS011;21982;49.804;24.072;2023-12-07T08:41:13;32.85;;;16.33;;
35877;SDS011;21982;49.804;24.072;2023-12-07T08:43:39;36.45;;;16.42;;
35877;SDS011;21982;49.804;24.072;2023-12-07T08:46:04;30.17;;;17.40;;
35877;SDS011;21982;49.804;24.072;2023-12-07T08:48:32;31.42;;;16.52;;
35877;SDS011;21982;49.804;24.072;2023-12-07T08:50:58;35.78;;;17.63;;
35877;SDS011;21982;49.804;24.072;2023-12-07T08:53:24;30.90;;;15.57;;
35877;SDS011;21982;49.804;24.072;2023-12-07T08:55:49;33.13;;;15.90;;
35877;SDS011;21982;49.804;24.072;2023-12-07T08:58:15;34.15;;;16.80;;
35877;SDS011;21982;49.804;24.072;2023-12-07T09:00:40;35.22;;;16.95;;
35877;SDS011;21982;49.804;24.072;2023-12-07T09:03:06;38.60;;;16.63;;
35877;SDS011;21982;49.804;24.072;2023-12-07T09:05:31;32.17;;;17.30;;
35877;SDS011;21982;49.804;24.072;2023-12-07T09:07:56;32.70;;;14.70;;
35877;SDS011;21982;49.804;24.072;2023-12-07T09:10:22;31.83;;;16.50;;
35877;SDS011;21982;49.804;24.072;2023-12-07T09:12:48;33.53;;;18.67;;
35877;SDS011;21982;49.804;24.072;2023-12-07T09:15:16;41.70;;;19.83;;
35877;SDS011;21982;49.804;24.072;2023-12-07T09:17:41;34.35;;;17.60;;
35877;SDS011;21982;49.804;24.072;2023-12-07T09:20:07;33.78;;;15.82;;
35877;SDS011;21982;49.804;24.072;2023-12-07T09:22:43;32.05;;;15.50;;
35877;SDS011;21982;49.804;24.072;2023-12-07T09:25:09;32.58;;;15.82;;
35877;SDS011;21982;49.804;24.072;2023-12-07T09:27:35;29.35;;;15.38;;
35877;SDS011;21982;49.804;24.072;2023-12-07T09:30:08;26.87;;;15.33;;
35877;SDS011;21982;49.804;24.072;2023-12-07T09:32:40;32.40;;;14.88;;
35877;SDS011;21982;49.804;24.072;2023-12-07T09:35:07;29.48;;;15.23;;
35877;SDS011;21982;49.804;24.072;2023-12-07T09:37:39;32.43;;;16.20;;
35877;SDS011;21982;49.804;24.072;2023-12-07T09:40:05;32.83;;;16.55;;
35877;SDS011;21982;49.804;24.072;2023-12-07T09:42:32;24.65;;;13.68;;
35877;SDS011;21982;49.804;24.072;2023-12-07T09:44:58;32.53;;;14.93;;
35877;SDS011;21982;49.804;24.072;2023-12-07T09:47:26;30.35;;;16.55;;
35877;SDS011;21982;49.804;24.072;2023-12-07T09:49:52;32.97;;;16.73;;
35877;SDS011;21982;49.804;24.072;2023-12-07T09:52:18;37.67;;;15.18;;
35877;SDS011;21982;49.804;24.072;2023-12-07T09:54:46;36.42;;;15.88;;
35877;SDS011;21982;49.804;24.072;2023-12-07T09:57:12;27.67;;;14.95;;
35877;SDS011;21982;49.804;24.072;2023-12-07T09:59:38;41.20;;;19.38;;
35877;SDS011;21982;49.804;24.072;2023-12-07T10:02:05;31.77;;;16.30;;
35877;SDS011;21982;49.804;24.072;2023-12-07T10:04:32;37.58;;;16.92;;
35877;SDS011;21982;49.804;24.072;2023-12-07T10:06:58;31.42;;;16.40;;
35877;SDS011;21982;49.804;24.072;2023-12-07T10:09:23;38.25;;;17.25;;
35877;SDS011;21982;49.804;24.072;2023-12-07T10:12:01;30.88;;;15.18;;
35877;SDS011;21982;49.804;24.072;2023-12-07T10:14:29;29.05;;;15.25;;
35877;SDS011;21982;49.804;24.072;2023-12-07T10:16:56;29.05;;;14.60;;
35877;SDS011;21982;49.804;24.072;2023-12-07T10:19:22;27.45;;;13.10;;
35877;SDS011;21982;49.804;24.072;2023-12-07T10:21:48;30.67;;;14.80;;
35877;SDS011;21982;49.804;24.072;2023-12-07T10:24:18;34.03;;;15.13;;
35877;SDS011;21982;49.804;24.072;2023-12-07T10:26:48;45.80;;;20.73;;
35877;SDS011;21982;49.804;24.072;2023-12-07T10:29:16;38.97;;;18.90;;
35877;SDS011;21982;49.804;24.072;2023-12-07T10:31:42;34.13;;;16.20;;
35877;SDS011;21982;49.804;24.072;2023-12-07T10:34:09;29.77;;;17.00;;
35877;SDS011;21982;49.804;24.072;2023-12-07T10:36:34;32.47;;;15.88;;
35877;SDS011;21982;49.804;24.072;2023-12-07T10:39:00;34.72;;;16.30;;
35877;SDS011;21982;49.804;24.072;2023-12-07T10:41:26;30.95;;;17.08;;
35877;SDS011;21982;49.804;24.072;2023-12-07T10:43:54;37.40;;;17.13;;
35877;SDS011;21982;49.804;24.072;2023-12-07T10:46:24;31.95;;;16.33;;
35877;SDS011;21982;49.804;24.072;2023-12-07T10:49:00;35.28;;;19.08;;
35877;SDS011;21982;49.804;24.072;2023-12-07T10:54:15;38.70;;;23.67;;
35877;SDS011;21982;49.804;24.072;2023-12-07T10:56:46;35.45;;;18.02;;
35877;SDS011;21982;49.804;24.072;2023-12-07T10:59:15;37.20;;;18.88;;
35877;SDS011;21982;49.804;24.072;2023-12-07T11:01:42;32.78;;;19.27;;
35877;SDS011;21982;49.804;24.072;2023-12-07T11:04:12;31.77;;;17.30;;
35877;SDS011;21982;49.804;24.072;2023-12-07T11:06:41;35.35;;;18.55;;
35877;SDS011;21982;49.804;24.072;2023-12-07T11:09:09;35.58;;;18.42;;
35877;SDS011;21982;49.804;24.072;2023-12-07T11:11:47;35.72;;;19.13;;
35877;SDS011;21982;49.804;24.072;2023-12-07T11:14:17;39.95;;;19.00;;
35877;SDS011;21982;49.804;24.072;2023-12-07T11:16:45;34.75;;;18.83;;
35877;SDS011;21982;49.804;24.072;2023-12-07T11:21:55;37.42;;;18.70;;
35877;SDS011;21982;49.804;24.072;2023-12-07T11:24:23;37.17;;;20.27;;
35877;SDS011;21982;49.804;24.072;2023-12-07T11:26:49;37.35;;;21.58;;
35877;SDS011;21982;49.804;24.072;2023-12-07T11:29:19;39.22;;;20.50;;
35877;SDS011;21982;49.804;24.072;2023-12-07T11:31:45;42.10;;;20.20;;
35877;SDS011;21982;49.804;24.072;2023-12-07T11:34:11;34.25;;;20.63;;
35877;SDS011;21982;49.804;24.072;2023-12-07T11:36:39;41.30;;;22.02;;
35877;SDS011;21982;49.804;24.072;2023-12-07T11:41:34;38.70;;;20.23;;
35877;SDS011;21982;49.804;24.072;2023-12-07T11:44:05;39.50;;;20.05;;
35877;SDS011;21982;49.804;24.072;2023-12-07T11:46:30;39.03;;;21.40;;
35877;SDS011;21982;49.804;24.072;2023-12-07T11:48:56;36.28;;;19.25;;
35877;SDS011;21982;49.804;24.072;2023-12-07T11:51:24;38.50;;;21.38;;
35877;SDS011;21982;49.804;24.072;2023-12-07T11:53:49;39.63;;;20.75;;
35877;SDS011;21982;49.804;24.072;2023-12-07T11:56:16;40.83;;;21.20;;
35877;SDS011;21982;49.804;24.072;2023-12-07T11:58:45;39.45;;;20.33;;
35877;SDS011;21982;49.804;24.072;2023-12-07T12:01:11;41.63;;;19.88;;
35877;SDS011;21982;49.804;24.072;2023-12-07T12:03:37;35.85;;;21.45;;
35877;SDS011;21982;49.804;24.072;2023-12-07T12:06:03;38.33;;;20.67;;
35877;SDS011;21982;49.804;24.072;2023-12-07T12:08:30;36.47;;;20.27;;
35877;SDS011;21982;49.804;24.072;2023-12-07T12:10:58;41.33;;;18.20;;
35877;SDS011;21982;49.804;24.072;2023-12-07T12:13:33;33.30;;;17.90;;
35877;SDS011;21982;49.804;24.072;2023-12-07T12:15:59;34.00;;;18.67;;
35877;SDS011;21982;49.804;24.072;2023-12-07T12:18:26;35.38;;;20.42;;
35877;SDS011;21982;49.804;24.072;2023-12-07T12:20:52;32.05;;;17.58;;
35877;SDS011;21982;49.804;24.072;2023-12-07T12:23:18;37.90;;;19.23;;
35877;SDS011;21982;49.804;24.072;2023-12-07T12:25:44;33.75;;;16.90;;
35877;SDS011;21982;49.804;24.072;2023-12-07T12:28:10;35.25;;;17.35;;
35877;SDS011;21982;49.804;24.072;2023-12-07T12:30:39;37.55;;;18.48;;
35877;SDS011;21982;49.804;24.072;2023-12-07T12:33:04;35.28;;;19.48;;
35877;SDS011;21982;49.804;24.072;2023-12-07T12:35:30;41.78;;;20.73;;
35877;SDS011;21982;49.804;24.072;2023-12-07T12:37:56;33.70;;;16.83;;
35877;SDS011;21982;49.804;24.072;2023-12-07T12:40:22;34.35;;;16.92;;
35877;SDS011;21982;49.804;24.072;2023-12-07T12:42:51;36.22;;;17.73;;
35877;SDS011;21982;49.804;24.072;2023-12-07T12:45:18;31.83;;;18.10;;
35877;SDS011;21982;49.804;24.072;2023-12-07T12:47:44;35.15;;;17.00;;
35877;SDS011;21982;49.804;24.072;2023-12-07T12:50:11;36.72;;;18.27;;
35877;SDS011;21982;49.804;24.072;2023-12-07T12:52:58;31.30;;;16.88;;
35877;SDS011;21982;49.804;24.072;2023-12-07T12:55:25;33.50;;;18.38;;
35877;SDS011;21982;49.804;24.072;2023-12-07T12:57:51;32.70;;;16.40;;
35877;SDS011;21982;49.804;24.072;2023-12-07T13:00:17;34.85;;;19.73;;
35877;SDS011;21982;49.804;24.072;2023-12-07T13:02:42;36.13;;;17.03;;
35877;SDS011;21982;49.804;24.072;2023-12-07T13:05:08;39.23;;;18.47;;
35877;SDS011;21982;49.804;24.072;2023-12-07T13:07:33;34.13;;;18.73;;
35877;SDS011;21982;49.804;24.072;2023-12-07T13:10:00;36.65;;;18.33;;
35877;SDS011;21982;49.804;24.072;2023-12-07T13:12:26;38.08;;;18.52;;
35877;SDS011;21982;49.804;24.072;2023-12-07T13:14:53;34.55;;;17.67;;
35877;SDS011;21982;49.804;24.072;2023-12-07T13:17:19;37.83;;;17.75;;
35877;SDS011;21982;49.804;24.072;2023-12-07T13:19:45;31.65;;;16.13;;
35877;SDS011;21982;49.804;24.072;2023-12-07T13:22:10;35.97;;;18.70;;
35877;SDS011;21982;49.804;24.072;2023-12-07T13:24:36;41.92;;;19.08;;
35877;SDS011;21982;49.804;24.072;2023-12-07T13:27:01;37.58;;;18.67;;
35877;SDS011;21982;49.804;24.072;2023-12-07T13:29:27;37.25;;;18.25;;
35877;SDS011;21982;49.804;24.072;2023-12-07T13:31:52;38.40;;;19.25;;
35877;SDS011;21982;49.804;24.072;2023-12-07T13:34:18;37.50;;;18.10;;
35877;SDS011;21982;49.804;24.072;2023-12-07T13:36:43;40.50;;;20.90;;
35877;SDS011;21982;49.804;24.072;2023-12-07T13:39:09;38.92;;;19.30;;
35877;SDS011;21982;49.804;24.072;2023-12-07T13:41:37;37.78;;;19.55;;
35877;SDS011;21982;49.804;24.072;2023-12-07T13:44:02;41.42;;;19.88;;
35877;SDS011;21982;49.804;24.072;2023-12-07T13:46:29;37.58;;;17.38;;
35877;SDS011;21982;49.804;24.072;2023-12-07T13:48:55;38.95;;;19.23;;
35877;SDS011;21982;49.804;24.072;2023-12-07T13:51:20;34.97;;;17.50;;
35877;SDS011;21982;49.804;24.072;2023-12-07T13:53:46;40.45;;;18.83;;
35877;SDS011;21982;49.804;24.072;2023-12-07T13:56:13;36.67;;;18.17;;
35877;SDS011;21982;49.804;24.072;2023-12-07T13:58:39;40.30;;;21.40;;
35877;SDS011;21982;49.804;24.072;2023-12-07T14:01:04;39.50;;;19.08;;
35877;SDS011;21982;49.804;24.072;2023-12-07T14:03:30;40.33;;;19.08;;
35877;SDS011;21982;49.804;24.072;2023-12-07T14:05:56;34.67;;;18.30;;
35877;SDS011;21982;49.804;24.072;2023-12-07T14:08:21;43.00;;;20.02;;
35877;SDS011;21982;49.804;24.072;2023-12-07T14:10:46;40.05;;;19.77;;
35877;SDS011;21982;49.804;24.072;2023-12-07T14:13:12;39.10;;;18.40;;
35877;SDS011;21982;49.804;24.072;2023-12-07T14:15:38;43.22;;;19.55;;
35877;SDS011;21982;49.804;24.072;2023-12-07T14:18:03;34.05;;;17.40;;
35877;SDS011;21982;49.804;24.072;2023-12-07T14:20:29;35.90;;;17.13;;
35877;SDS011;21982;49.804;24.072;2023-12-07T14:22:54;38.72;;;19.13;;
35877;SDS011;21982;49.804;24.072;2023-12-07T14:25:20;37.63;;;19.05;;
35877;SDS011;21982;49.804;24.072;2023-12-07T14:27:46;35.87;;;18.90;;
35877;SDS011;21982;49.804;24.072;2023-12-07T14:30:11;40.45;;;18.75;;
35877;SDS011;21982;49.804;24.072;2023-12-07T14:32:37;36.20;;;19.37;;
35877;SDS011;21982;49.804;24.072;2023-12-07T14:35:03;37.58;;;19.63;;
35877;SDS011;21982;49.804;24.072;2023-12-07T14:37:29;44.03;;;20.30;;
35877;SDS011;21982;49.804;24.072;2023-12-07T14:39:55;35.38;;;19.42;;
35877;SDS011;21982;49.804;24.072;2023-12-07T14:42:20;36.67;;;19.13;;
35877;SDS011;21982;49.804;24.072;2023-12-07T14:44:45;41.50;;;19.83;;
35877;SDS011;21982;49.804;24.072;2023-12-07T14:47:11;39.93;;;19.60;;
35877;SDS011;21982;49.804;24.072;2023-12-07T14:49:37;35.17;;;17.73;;
35877;SDS011;21982;49.804;24.072;2023-12-07T14:52:03;38.40;;;18.53;;
35877;SDS011;21982;49.804;24.072;2023-12-07T14:54:29;38.87;;;19.23;;
35877;SDS011;21982;49.804;24.072;2023-12-07T14:56:55;42.40;;;21.67;;
35877;SDS011;21982;49.804;24.072;2023-12-07T14:59:21;41.67;;;20.93;;
35877;SDS011;21982;49.804;24.072;2023-12-07T15:01:47;45.17;;;21.57;;
35877;SDS011;21982;49.804;24.072;2023-12-07T15:04:14;38.05;;;18.95;;
35877;SDS011;21982;49.804;24.072;2023-12-07T15:06:40;38.60;;;18.17;;
35877;SDS011;21982;49.804;24.072;2023-12-07T15:09:08;38.40;;;18.20;;
35877;SDS011;21982;49.804;24.072;2023-12-07T15:11:34;37.80;;;19.37;;
35877;SDS011;21982;49.804;24.072;2023-12-07T15:13:59;38.35;;;18.88;;
35877;SDS011;21982;49.804;24.072;2023-12-07T15:16:28;39.80;;;18.35;;
35877;SDS011;21982;49.804;24.072;2023-12-07T15:18:53;36.17;;;17.83;;
35877;SDS011;21982;49.804;24.072;2023-12-07T15:21:19;39.20;;;21.40;;
35877;SDS011;21982;49.804;24.072;2023-12-07T15:23:45;40.95;;;18.77;;
35877;SDS011;21982;49.804;24.072;2023-12-07T15:26:10;41.23;;;21.27;;
35877;SDS011;21982;49.804;24.072;2023-12-07T15:28:37;43.60;;;20.53;;
35877;SDS011;21982;49.804;24.072;2023-12-07T15:31:04;42.63;;;21.67;;
35877;SDS011;21982;49.804;24.072;2023-12-07T15:33:33;40.53;;;21.87;;
35877;SDS011;21982;49.804;24.072;2023-12-07T15:36:00;41.63;;;22.10;;
35877;SDS011;21982;49.804;24.072;2023-12-07T15:38:28;43.67;;;21.93;;
35877;SDS011;21982;49.804;24.072;2023-12-07T15:40:54;46.03;;;24.17;;
35877;SDS011;21982;49.804;24.072;2023-12-07T15:43:25;35.92;;;18.63;;